Time;durP1;ratioP1;P1;durP2;ratioP2;P2;SDS_P1;SDS_P2;PMS_P1;PMS_P2;Temp;Humidity;BMP_temperature;BMP_pressure;BME280_temperature;BME280_humidity;BME280_pressure;Samples;Min_cycle;Max_cycle;Signal;HPM_P1;HPM_P2
2023/05/02 00:01:19;;;;;;;;;;;;;;;;;;5155006;27;899;-47
2023/05/02 00:03:47;;;;;;;;;;;;;;;;;;5154889;27;1980;-38
2023/05/02 00:06:14;;;;;;;;;;;;;;;;;;5155027;27;955;-38
2023/05/02 00:08:41;;;;;;;;;;;;;;;;;;5154770;27;917;-39
2023/05/02 00:11:08;;;;;;;;;;;;;;;;;;5155025;27;950;-58
2023/05/02 00:13:35;;;;;;;;;;;;;;;;;;5154664;27;979;-39
2023/05/02 00:16:03;;;;;;;;;;;;;;;;;;5154511;27;1362;-39
2023/05/02 00:18:30;;;;;;;;;;;;;;;;;;5154661;27;1588;-38
2023/05/02 00:20:58;;;;;;;;;;;;;;;;;;5154607;27;970;-38
2023/05/02 00:23:25;;;;;;;;;;;;;;;;;;5136162;27;1977;-42
2023/05/02 00:25:52;;;;;;;;;;;;;;;;;;5154953;27;1004;-38
2023/05/02 00:28:19;;;;;;;;;;;;;;;;;;5154516;27;1314;-38
2023/05/02 00:30:46;;;;;;;;;;;;;;;;;;5154485;27;1562;-39
2023/05/02 00:33:14;;;;;;;;;;;;;;;;;;5154088;27;1082;-38
2023/05/02 00:35:44;;;;;;;;;;;;;;;;;;5154471;27;1215;-38
2023/05/02 00:38:11;;;;;;;;;;;;;;;;;;5154202;27;1600;-38
2023/05/02 00:40:44;;;;;;;;;;;;;;;;;;5154374;27;993;-38
2023/05/02 00:43:11;;;;;;;;;;;;;;;;;;5135198;27;1909;-38
2023/05/02 00:45:42;;;;;;;;;;;;;;;;;;5154114;27;997;-39
2023/05/02 00:48:09;;;;;;;;;;;;;;;;;;5135654;27;1214;-38
2023/05/02 00:50:42;;;;;;;;;;;;;;;;;;5135341;27;1362;-38
2023/05/02 00:53:09;;;;;;;;;;;;;;;;;;5155860;27;1346;-39
2023/05/02 00:55:37;;;;;;;;;;;;;;;;;;5174531;27;1102;-39
2023/05/02 00:58:07;;;;;;;;;;;;;;;;;;5174725;27;1003;-38
2023/05/02 01:00:53;;;;;;;;;;;;;;;;;;5174864;27;1315;-38
2023/05/02 01:03:29;;;;;;;;;;;;;;;;;;5174686;27;1907;-38
2023/05/02 01:06:10;;;;;;;;;;;;;;;;;;5174170;27;1419;-39
2023/05/02 01:08:51;;;;;;;;;;;;;;;;;;5174364;27;1110;-39
2023/05/02 01:11:41;;;;;;;;;;;;;;;;;;5174636;27;1260;-39
2023/05/02 01:14:10;;;;;;;;;;;;;;;;;;5161350;27;1673;-38
2023/05/02 01:16:40;;;;;;;;;;;;;;;;;;5155716;27;2371;-40
2023/05/02 01:19:26;;;;;;;;;;;;;;;;;;5174203;27;1055;-38
2023/05/02 01:21:55;;;;;;;;;;;;;;;;;;5174202;27;1075;-38
2023/05/02 01:24:29;;;;;;;;;;;;;;;;;;5155787;27;1919;-44
2023/05/02 01:27:19;;;;;;;;;;;;;;;;;;5155573;27;928;-38
2023/05/02 01:29:49;;;;;;;;;;;;;;;;;;5126657;27;1443;-39
2023/05/02 01:32:17;;;;;;;;;;;;;;;;;;5155355;27;1173;-43
2023/05/02 01:34:46;;;;;;;;;;;;;;;;;;5174009;27;907;-38
2023/05/02 01:37:14;;;;;;;;;;;;;;;;;;5173979;27;1280;-39
2023/05/02 01:39:41;;;;;;;;;;;;;;;;;;5155256;27;1244;-60
2023/05/02 01:42:10;;;;;;;;;;;;;;;;;;5173996;27;1006;-38
2023/05/02 01:44:38;;;;;;;;;;;;;;;;;;5173788;27;1970;-46
2023/05/02 01:47:06;;;;;;;;;;;;;;;;;;5173983;27;1405;-40
2023/05/02 01:49:34;;;;;;;;;;;;;;;;;;5154955;27;2123;-39
2023/05/02 01:52:04;;;;;;;;;;;;;;;;;;5173467;27;1279;-39
2023/05/02 01:54:32;;;;;;;;;;;;;;;;;;5159797;27;1285;-38
2023/05/02 01:57:01;;;;;;;;;;;;;;;;;;5134263;27;1217;-39
2023/05/02 01:59:29;;;;;;;;;;;;;;;;;;5134578;27;2470;-39
2023/05/02 02:01:58;;;;;;;;;;;;;;;;;;5152403;27;1121;-39
2023/05/02 02:04:25;;;;;;;;;;;;;;;;;;5134184;27;2121;-39
2023/05/02 02:06:56;;;;;;;;;;;;;;;;;;5152590;27;1083;-39
2023/05/02 02:09:24;;;;;;;;;;;;;;;;;;5152919;27;964;-39
2023/05/02 02:12:03;;;;;;;;;;;;;;;;;;5152688;27;1314;-40
2023/05/02 02:14:34;;;;;;;;;;;;;;;;;;5152620;27;970;-39
2023/05/02 02:17:05;;;;;;;;;;;;;;;;;;5134216;27;1242;-38
2023/05/02 02:19:32;;;;;;;;;;;;;;;;;;5152804;27;1165;-38
2023/05/02 02:21:59;;;;;;;;;;;;;;;;;;5152734;27;1268;-38
2023/05/02 02:24:27;;;;;;;;;;;;;;;;;;5134338;27;2427;-46
2023/05/02 02:26:54;;;;;;;;;;;;;;;;;;5134356;27;1107;-39
2023/05/02 02:29:21;;;;;;;;;;;;;;;;;;5152350;27;1216;-38
2023/05/02 02:31:48;;;;;;;;;;;;;;;;;;5152436;27;1067;-39
2023/05/02 02:34:15;;;;;;;;;;;;;;;;;;5152504;27;1085;-39
2023/05/02 02:36:45;;;;;;;;;;;;;;;;;;5152341;27;984;-38
2023/05/02 02:39:27;;;;;;;;;;;;;;;;;;5152473;27;1017;-47
2023/05/02 02:42:01;;;;;;;;;;;;;;;;;;5152350;27;1092;-38
2023/05/02 02:44:38;;;;;;;;;;;;;;;;;;5152251;27;1976;-38
2023/05/02 02:47:09;;;;;;;;;;;;;;;;;;5131808;28;1078;-38
2023/05/02 02:49:56;;;;;;;;;;;;;;;;;;5113140;28;1229;-39
2023/05/02 02:52:23;;;;;;;;;;;;;;;;;;5113034;27;1198;-39
2023/05/02 02:54:56;;;;;;;;;;;;;;;;;;5164842;27;1591;-38
2023/05/02 02:57:27;;;;;;;;;;;;;;;;;;5173229;27;951;-39
2023/05/02 03:00:17;;;;;;;;;;;;;;;;;;5154288;27;1291;-38
2023/05/02 03:02:45;;;;;;;;;;;;;;;;;;5172287;27;1447;-49
2023/05/02 03:05:13;;;;;;;;;;;;;;;;;;5159562;27;1978;-39
2023/05/02 03:07:40;;;;;;;;;;;;;;;;;;5152260;27;964;-41
2023/05/02 03:10:08;;;;;;;;;;;;;;;;;;5133449;27;1333;-41
2023/05/02 03:12:38;;;;;;;;;;;;;;;;;;5133614;27;1564;-43
2023/05/02 03:15:13;;;;;;;;;;;;;;;;;;5136844;27;1426;-42
2023/05/02 03:17:42;;;;;;;;;;;;;;;;;;5137506;27;1251;-41
2023/05/02 03:20:10;;;;;;;;;;;;;;;;;;5155727;27;1362;-39
2023/05/02 03:22:37;;;;;;;;;;;;;;;;;;5155456;27;1030;-42
2023/05/02 03:25:06;;;;;;;;;;;;;;;;;;5136675;27;1908;-39
2023/05/02 03:27:34;;;;;;;;;;;;;;;;;;5116588;27;1182;-43
2023/05/02 03:30:03;;;;;;;;;;;;;;;;;;5116758;27;1417;-39
2023/05/02 03:32:31;;;;;;;;;;;;;;;;;;5116702;27;1211;-38
2023/05/02 03:34:59;;;;;;;;;;;;;;;;;;5134941;27;1190;-46
2023/05/02 03:37:33;;;;;;;;;;;;;;;;;;5116430;27;1209;-39
2023/05/02 03:40:00;;;;;;;;;;;;;;;;;;5134831;27;906;-39
2023/05/02 03:42:28;;;;;;;;;;;;;;;;;;5115917;27;1278;-39
2023/05/02 03:44:56;;;;;;;;;;;;;;;;;;5116117;27;1909;-39
2023/05/02 03:47:26;;;;;;;;;;;;;;;;;;5116106;27;1128;-40
2023/05/02 03:49:53;;;;;;;;;;;;;;;;;;5130299;27;1330;-50
2023/05/02 03:52:20;;;;;;;;;;;;;;;;;;5115742;27;1399;-39
2023/05/02 03:54:51;;;;;;;;;;;;;;;;;;5149072;27;1233;-39
2023/05/02 03:57:18;;;;;;;;;;;;;;;;;;5176026;27;1193;-38
2023/05/02 03:59:46;;;;;;;;;;;;;;;;;;5157321;27;1535;-37
2023/05/02 04:02:23;;;;;;;;;;;;;;;;;;5145596;27;1430;-39
2023/05/02 04:04:50;;;;;;;;;;;;;;;;;;5155019;27;1900;-39
2023/05/02 04:07:20;;;;;;;;;;;;;;;;;;5136406;27;1109;-39
2023/05/02 04:09:55;;;;;;;;;;;;;;;;;;5136169;27;1364;-38
2023/05/02 04:12:22;;;;;;;;;;;;;;;;;;5136324;27;1164;-38
2023/05/02 04:14:51;;;;;;;;;;;;;;;;;;5136830;27;1198;-38
2023/05/02 04:17:22;;;;;;;;;;;;;;;;;;5136181;27;1083;-38
2023/05/02 04:19:50;;;;;;;;;;;;;;;;;;5136059;27;1399;-39
2023/05/02 04:22:20;;;;;;;;;;;;;;;;;;5136113;27;1473;-39
2023/05/02 04:24:54;;;;;;;;;;;;;;;;;;5135497;27;1914;-61
2023/05/02 04:27:22;;;;;;;;;;;;;;;;;;5135782;27;2189;-61
2023/05/02 04:29:51;;;;;;;;;;;;;;;;;;5135983;27;1328;-40
2023/05/02 04:32:18;;;;;;;;;;;;;;;;;;5135573;27;1415;-61
2023/05/02 04:34:47;;;;;;;;;;;;;;;;;;5135717;27;1062;-39
2023/05/02 04:37:15;;;;;;;;;;;;;;;;;;5154468;27;939;-39
2023/05/02 04:39:44;;;;;;;;;;;;;;;;;;5135567;27;1390;-64
2023/05/02 04:42:16;;;;;;;;;;;;;;;;;;5135704;27;1337;-39
2023/05/02 04:45:02;;;;;;;;;;;;;;;;;;5135504;27;2023;-39
2023/05/02 04:47:30;;;;;;;;;;;;;;;;;;5135600;27;1022;-39
2023/05/02 04:49:58;;;;;;;;;;;;;;;;;;5135655;27;1360;-39
2023/05/02 04:52:26;;;;;;;;;;;;;;;;;;5118476;27;1754;-38
2023/05/02 04:54:53;;;;;;;;;;;;;;;;;;5135227;27;1362;-57
2023/05/02 04:57:20;;;;;;;;;;;;;;;;;;5153823;27;935;-39
2023/05/02 04:59:53;;;;;;;;;;;;;;;;;;5135414;27;1633;-38
2023/05/02 05:02:22;;;;;;;;;;;;;;;;;;5135226;27;1160;-39
2023/05/02 05:04:49;;;;;;;;;;;;;;;;;;5153914;27;1915;-39
2023/05/02 05:07:18;;;;;;;;;;;;;;;;;;5135212;27;1262;-40
2023/05/02 05:09:47;;;;;;;;;;;;;;;;;;5134999;27;2475;-39
2023/05/02 05:12:17;;;;;;;;;;;;;;;;;;5134986;27;1225;-38
2023/05/02 05:14:47;;;;;;;;;;;;;;;;;;5135225;27;1076;-39
2023/05/02 05:17:14;;;;;;;;;;;;;;;;;;5135185;27;1501;-39
2023/05/02 05:19:42;;;;;;;;;;;;;;;;;;5153714;27;901;-40
2023/05/02 05:22:09;;;;;;;;;;;;;;;;;;5135361;27;1105;-45
2023/05/02 05:24:38;;;;;;;;;;;;;;;;;;5134924;27;1913;-38
2023/05/02 05:27:05;;;;;;;;;;;;;;;;;;5134781;27;1416;-40
2023/05/02 05:29:32;;;;;;;;;;;;;;;;;;5153017;27;1602;-39
2023/05/02 05:31:59;;;;;;;;;;;;;;;;;;5134550;27;1201;-38
2023/05/02 05:34:29;;;;;;;;;;;;;;;;;;5153249;27;1061;-38
2023/05/02 05:37:00;;;;;;;;;;;;;;;;;;5133840;27;1516;-39
2023/05/02 05:39:27;;;;;;;;;;;;;;;;;;5153104;27;1303;-38
2023/05/02 05:41:57;;;;;;;;;;;;;;;;;;5134520;27;1444;-39
2023/05/02 05:44:24;;;;;;;;;;;;;;;;;;5134129;27;1967;-38
2023/05/02 05:46:52;;;;;;;;;;;;;;;;;;5152792;27;977;-38
2023/05/02 05:49:21;;;;;;;;;;;;;;;;;;5134368;27;1335;-38
2023/05/02 05:51:48;;;;;;;;;;;;;;;;;;5152773;27;1199;-58
2023/05/02 05:54:17;;;;;;;;;;;;;;;;;;5146116;27;1421;-39
2023/05/02 05:56:45;;;;;;;;;;;;;;;;;;5173362;27;939;-38
2023/05/02 05:59:15;;;;;;;;;;;;;;;;;;5173719;27;2001;-38
2023/05/02 06:01:43;;;;;;;;;;;;;;;;;;5173923;27;1952;-38
2023/05/02 06:04:11;;;;;;;;;;;;;;;;;;5155242;27;1990;-43
2023/05/02 06:06:42;;;;;;;;;;;;;;;;;;5173821;27;1933;-39
2023/05/02 06:09:10;;;;;;;;;;;;;;;;;;5173766;27;1936;-38
2023/05/02 06:11:43;;;;;;;;;;;;;;;;;;5173990;27;2129;-39
2023/05/02 06:14:10;;;;;;;;;;;;;;;;;;5174332;27;1791;-38
2023/05/02 06:16:38;;;;;;;;;;;;;;;;;;5155099;27;2003;-39
2023/05/02 06:19:05;;;;;;;;;;;;;;;;;;5155333;27;2465;-38
2023/05/02 06:21:35;;;;;;;;;;;;;;;;;;5173701;27;1366;-59
2023/05/02 06:24:02;;;;;;;;;;;;;;;;;;5173667;27;2023;-37
2023/05/02 06:26:29;;;;;;;;;;;;;;;;;;5173672;27;1986;-38
2023/05/02 06:28:56;;;;;;;;;;;;;;;;;;5172111;27;2158;-38
2023/05/02 06:31:23;;;;;;;;;;;;;;;;;;5171507;27;1992;-37
2023/05/02 06:33:51;;;;;;;;;;;;;;;;;;5171348;27;1681;-38
2023/05/02 06:36:18;;;;;;;;;;;;;;;;;;5171209;27;2052;-38
2023/05/02 06:38:46;;;;;;;;;;;;;;;;;;5171515;27;1982;-38
2023/05/02 06:41:13;;;;;;;;;;;;;;;;;;5171493;27;2037;-38
2023/05/02 06:43:43;;;;;;;;;;;;;;;;;;5157881;27;1960;-38
2023/05/02 06:46:10;;;;;;;;;;;;;;;;;;5152498;27;1913;-59
2023/05/02 06:48:37;;;;;;;;;;;;;;;;;;5155413;27;2033;-38
2023/05/02 06:51:05;;;;;;;;;;;;;;;;;;5156321;27;1854;-51
2023/05/02 06:53:33;;;;;;;;;;;;;;;;;;5155890;27;2009;-38
2023/05/02 06:56:00;;;;;;;;;;;;;;;;;;5156488;27;2034;-38
2023/05/02 06:58:29;;;;;;;;;;;;;;;;;;5156531;27;1751;-39
2023/05/02 07:00:56;;;;;;;;;;;;;;;;;;5156168;27;2068;-38
2023/05/02 07:03:23;;;;;;;;;;;;;;;;;;5155616;27;2287;-58
2023/05/02 07:05:50;;;;;;;;;;;;;;;;;;5156106;27;2052;-38
2023/05/02 07:08:17;;;;;;;;;;;;;;;;;;5156472;27;1915;-37
2023/05/02 07:10:44;;;;;;;;;;;;;;;;;;5156227;27;1911;-60
2023/05/02 07:13:12;;;;;;;;;;;;;;;;;;5156118;27;1915;-49
2023/05/02 07:15:39;;;;;;;;;;;;;;;;;;5155879;27;1943;-37
2023/05/02 07:18:06;;;;;;;;;;;;;;;;;;5156003;27;1800;-53
2023/05/02 07:20:33;;;;;;;;;;;;;;;;;;5155895;27;2079;-38
2023/05/02 07:23:00;;;;;;;;;;;;;;;;;;5155813;27;1933;-37
2023/05/02 07:25:28;;;;;;;;;;;;;;;;;;5155625;27;1998;-38
2023/05/02 07:27:55;;;;;;;;;;;;;;;;;;5155841;27;1973;-38
2023/05/02 07:30:22;;;;;;;;;;;;;;;;;;5155690;27;2058;-38
2023/05/02 07:32:49;;;;;;;;;;;;;;;;;;5156037;27;2007;-38
2023/05/02 07:35:16;;;;;;;;;;;;;;;;;;5155900;27;2054;-38
2023/05/02 07:37:44;;;;;;;;;;;;;;;;;;5155432;27;2085;-38
2023/05/02 07:40:11;;;;;;;;;;;;;;;;;;5148210;27;2127;-55
2023/05/02 07:42:40;;;;;;;;;;;;;;;;;;5147425;27;1599;-36
2023/05/02 07:45:07;;;;;;;;;;;;;;;;;;5155303;27;1974;-38
2023/05/02 07:47:35;;;;;;;;;;;;;;;;;;5155206;27;2008;-39
2023/05/02 07:50:05;;;;;;;;;;;;;;;;;;5155245;27;2037;-53
2023/05/02 07:52:33;;;;;;;;;;;;;;;;;;5155079;27;1965;-37
2023/05/02 07:55:00;;;;;;;;;;;;;;;;;;5173617;27;1600;-38
2023/05/02 07:57:27;;;;;;;;;;;;;;;;;;5174841;27;1872;-38
2023/05/02 07:59:56;;;;;;;;;;;;;;;;;;5161029;27;2085;-39
2023/05/02 08:02:23;;;;;;;;;;;;;;;;;;5155273;27;2286;-38
2023/05/02 08:04:50;;;;;;;;;;;;;;;;;;5155111;27;2118;-38
2023/05/02 08:07:18;;;;;;;;;;;;;;;;;;5155243;27;1914;-38
2023/05/02 08:09:45;;;;;;;;;;;;;;;;;;5155019;27;2023;-42
2023/05/02 08:12:13;;;;;;;;;;;;;;;;;;5154852;27;1908;-38
2023/05/02 08:14:40;;;;;;;;;;;;;;;;;;5154897;27;1935;-38
2023/05/02 08:17:07;;;;;;;;;;;;;;;;;;5155077;27;1934;-38
2023/05/02 08:19:34;;;;;;;;;;;;;;;;;;5154682;27;1869;-38
2023/05/02 08:22:02;;;;;;;;;;;;;;;;;;5154850;27;2092;-37
2023/05/02 08:24:30;;;;;;;;;;;;;;;;;;5154867;27;2016;-38
2023/05/02 08:26:57;;;;;;;;;;;;;;;;;;5135761;27;2258;-38
2023/05/02 08:29:24;;;;;;;;;;;;;;;;;;5154497;27;1924;-38
2023/05/02 08:31:51;;;;;;;;;;;;;;;;;;5154758;27;2291;-38
2023/05/02 08:34:18;;;;;;;;;;;;;;;;;;5154673;27;1986;-38
2023/05/02 08:36:46;;;;;;;;;;;;;;;;;;5154382;27;1999;-37
2023/05/02 08:39:13;;;;;;;;;;;;;;;;;;5154387;27;2000;-45
2023/05/02 08:41:40;;;;;;;;;;;;;;;;;;5150344;27;1980;-40
2023/05/02 08:44:07;;;;;;;;;;;;;;;;;;5150748;27;1971;-38
2023/05/02 08:46:36;;;;;;;;;;;;;;;;;;5152438;27;2198;-38
2023/05/02 08:49:04;;;;;;;;;;;;;;;;;;5152701;27;1821;-38
2023/05/02 08:51:34;;;;;;;;;;;;;;;;;;5153175;27;2032;-38
2023/05/02 08:54:02;;;;;;;;;;;;;;;;;;5153293;27;1983;-39
2023/05/02 08:56:29;;;;;;;;;;;;;;;;;;5152903;27;1949;-38
2023/05/02 08:58:56;;;;;;;;;;;;;;;;;;5153138;27;1962;-37
2023/05/02 09:01:27;;;;;;;;;;;;;;;;;;5153846;27;1757;-38
2023/05/02 09:03:58;;;;;;;;;;;;;;;;;;5154065;27;2444;-38
2023/05/02 09:06:26;;;;;;;;;;;;;;;;;;5154257;27;1973;-38
2023/05/02 09:08:53;;;;;;;;;;;;;;;;;;5153890;27;2153;-38
2023/05/02 09:11:21;;;;;;;;;;;;;;;;;;5152723;27;1745;-39
2023/05/02 09:13:49;;;;;;;;;;;;;;;;;;5153638;27;2000;-37
2023/05/02 09:16:18;;;;;;;;;;;;;;;;;;5153120;27;2214;-55
2023/05/02 09:18:47;;;;;;;;;;;;;;;;;;5153371;27;1960;-39
2023/05/02 09:21:15;;;;;;;;;;;;;;;;;;5153390;27;1823;-38
2023/05/02 09:23:49;;;;;;;;;;;;;;;;;;5154019;27;1929;-37
2023/05/02 09:26:21;;;;;;;;;;;;;;;;;;5153024;27;1910;-38
2023/05/02 09:28:50;;;;;;;;;;;;;;;;;;5153453;27;2251;-37
2023/05/02 09:31:26;;;;;;;;;;;;;;;;;;5153407;27;1995;-41
2023/05/02 09:34:15;;;;;;;;;;;;;;;;;;5134710;27;2044;-44
2023/05/02 09:36:44;;;;;;;;;;;;;;;;;;5153203;27;2218;-37
2023/05/02 09:39:12;;;;;;;;;;;;;;;;;;5153280;27;1911;-37
2023/05/02 09:41:48;;;;;;;;;;;;;;;;;;5153168;27;2003;-37
2023/05/02 09:44:19;;;;;;;;;;;;;;;;;;5153388;27;2077;-39
2023/05/02 09:47:05;;;;;;;;;;;;;;;;;;5153114;27;2205;-38
2023/05/02 09:49:43;;;;;;;;;;;;;;;;;;5153087;27;2046;-38
2023/05/02 09:52:12;;;;;;;;;;;;;;;;;;5134701;27;1867;-37
2023/05/02 09:54:39;;;;;;;;;;;;;;;;;;5167777;27;2092;-38
2023/05/02 09:57:06;;;;;;;;;;;;;;;;;;5173937;27;2028;-37
2023/05/02 09:59:33;;;;;;;;;;;;;;;;;;5173754;27;2001;-38
2023/05/02 10:02:06;;;;;;;;;;;;;;;;;;5162258;27;1970;-38
2023/05/02 10:04:33;;;;;;;;;;;;;;;;;;5153076;27;2142;-40
2023/05/02 10:07:01;;;;;;;;;;;;;;;;;;5152778;27;2026;-38
2023/05/02 10:09:31;;;;;;;;;;;;;;;;;;5152975;27;1957;-38
2023/05/02 10:12:06;;;;;;;;;;;;;;;;;;5152753;27;1968;-39
2023/05/02 10:14:38;;;;;;;;;;;;;;;;;;5152745;27;2193;-38
2023/05/02 10:17:12;;;;;;;;;;;;;;;;;;5152810;27;2418;-38
2023/05/02 10:19:54;;;;;;;;;;;;;;;;;;5152906;27;1959;-39
2023/05/02 10:22:22;;;;;;;;;;;;;;;;;;5153512;27;1935;-37
2023/05/02 10:24:49;;;;;;;;;;;;;;;;;;5156802;27;1922;-38
2023/05/02 10:27:16;;;;;;;;;;;;;;;;;;5157062;27;2067;-41
2023/05/02 10:29:45;;;;;;;;;;;;;;;;;;5156969;27;1857;-38
2023/05/02 10:32:13;;;;;;;;;;;;;;;;;;5156917;27;1864;-37
2023/05/02 10:34:40;;;;;;;;;;;;;;;;;;5156664;27;2075;-37
2023/05/02 10:37:08;;;;;;;;;;;;;;;;;;5156595;27;1909;-40
2023/05/02 10:39:35;;;;;;;;;;;;;;;;;;5156627;27;1992;-38
2023/05/02 10:42:03;;;;;;;;;;;;;;;;;;5156705;27;1804;-38
2023/05/02 10:44:34;;;;;;;;;;;;;;;;;;5157094;27;1904;-37
2023/05/02 10:47:16;;;;;;;;;;;;;;;;;;5156430;27;1932;-37
2023/05/02 10:49:51;;;;;;;;;;;;;;;;;;5156575;27;1812;-38
2023/05/02 10:52:25;;;;;;;;;;;;;;;;;;5156347;27;1952;-37
2023/05/02 10:55:12;;;;;;;;;;;;;;;;;;5161842;27;2171;-38
2023/05/02 10:58:00;;;;;;;;;;;;;;;;;;5156394;27;2047;-38
2023/05/02 11:00:28;;;;;;;;;;;;;;;;;;5156346;27;1895;-38
2023/05/02 11:02:56;;;;;;;;;;;;;;;;;;5156346;27;2052;-38
2023/05/02 11:05:24;;;;;;;;;;;;;;;;;;5156326;27;1947;-54
2023/05/02 11:08:10;;;;;;;;;;;;;;;;;;5156297;27;1980;-49
2023/05/02 11:10:37;;;;;;;;;;;;;;;;;;5156035;27;1904;-37
2023/05/02 11:13:04;;;;;;;;;;;;;;;;;;5156128;27;2042;-38
2023/05/02 11:15:34;;;;;;;;;;;;;;;;;;5156242;27;1955;-43
2023/05/02 11:18:02;;;;;;;;;;;;;;;;;;5156768;27;1890;-36
2023/05/02 11:20:30;;;;;;;;;;;;;;;;;;5156322;27;2036;-38
2023/05/02 11:23:20;;;;;;;;;;;;;;;;;;5156143;27;2144;-39
2023/05/02 11:25:49;;;;;;;;;;;;;;;;;;5155844;27;2098;-48
2023/05/02 11:28:46;;;;;;;;;;;;;;;;;;5155978;27;1982;-47
2023/05/02 11:31:39;;;;;;;;;;;;;;;;;;5134834;27;2068;-39
2023/05/02 11:34:06;;;;;;;;;;;;;;;;;;5143668;27;2106;-54
2023/05/02 11:36:35;;;;;;;;;;;;;;;;;;5156114;27;2065;-38
2023/05/02 11:39:04;;;;;;;;;;;;;;;;;;5155785;27;2084;-48
2023/05/02 11:41:38;;;;;;;;;;;;;;;;;;5155849;27;1902;-42
2023/05/02 11:44:06;;;;;;;;;;;;;;;;;;5155837;27;1975;-38
2023/05/02 11:46:36;;;;;;;;;;;;;;;;;;5155616;27;2001;-43
2023/05/02 11:49:04;;;;;;;;;;;;;;;;;;5155660;27;1985;-46
2023/05/02 11:51:33;;;;;;;;;;;;;;;;;;5153971;27;1849;-42
2023/05/02 11:54:02;;;;;;;;;;;;;;;;;;5153891;27;1925;-44
2023/05/02 11:56:29;;;;;;;;;;;;;;;;;;5155216;27;1807;-44
2023/05/02 11:58:58;;;;;;;;;;;;;;;;;;5154714;27;1962;-38
2023/05/02 12:01:26;;;;;;;;;;;;;;;;;;5155568;27;1996;-37
2023/05/02 12:04:06;;;;;;;;;;;;;;;;;;5154262;27;2091;-38
2023/05/02 12:06:34;;;;;;;;;;;;;;;;;;5154916;27;1984;-38
2023/05/02 12:09:08;;;;;;;;;;;;;;;;;;5155089;27;1597;-38
2023/05/02 12:11:37;;;;;;;;;;;;;;;;;;5155147;27;1988;-41
2023/05/02 12:14:04;;;;;;;;;;;;;;;;;;5155299;27;1964;-37
2023/05/02 12:16:32;;;;;;;;;;;;;;;;;;5154837;27;1888;-40
2023/05/02 12:18:59;;;;;;;;;;;;;;;;;;5154997;27;1883;-37
2023/05/02 12:21:33;;;;;;;;;;;;;;;;;;5154820;27;2032;-37
2023/05/02 12:24:01;;;;;;;;;;;;;;;;;;5154881;27;2017;-37
2023/05/02 12:26:29;;;;;;;;;;;;;;;;;;5154583;27;1913;-36
2023/05/02 12:28:57;;;;;;;;;;;;;;;;;;5154754;27;1992;-36
2023/05/02 12:31:26;;;;;;;;;;;;;;;;;;5154702;27;2075;-37
2023/05/02 12:33:56;;;;;;;;;;;;;;;;;;5154613;27;1990;-38
2023/05/02 12:36:23;;;;;;;;;;;;;;;;;;5154778;27;2048;-37
2023/05/02 12:38:52;;;;;;;;;;;;;;;;;;5154663;27;1810;-38
2023/05/02 12:41:35;;;;;;;;;;;;;;;;;;5154459;27;1966;-38
2023/05/02 12:44:03;;;;;;;;;;;;;;;;;;5154278;27;1448;-38
2023/05/02 12:46:30;;;;;;;;;;;;;;;;;;5153978;27;2160;-37
2023/05/02 12:49:06;;;;;;;;;;;;;;;;;;5154348;27;1650;-38
2023/05/02 12:51:35;;;;;;;;;;;;;;;;;;5154179;27;1994;-37
2023/05/02 12:54:03;;;;;;;;;;;;;;;;;;5163991;27;2119;-37
2023/05/02 12:56:37;;;;;;;;;;;;;;;;;;5174896;27;1838;-37
2023/05/02 12:59:04;;;;;;;;;;;;;;;;;;5156636;27;2039;-38
2023/05/02 13:01:33;;;;;;;;;;;;;;;;;;5174987;27;2036;-37
2023/05/02 13:04:00;;;;;;;;;;;;;;;;;;5174911;27;2075;-37
2023/05/02 13:06:27;;;;;;;;;;;;;;;;;;5174829;27;1910;-37
2023/05/02 13:08:54;;;;;;;;;;;;;;;;;;5174826;27;1971;-38
2023/05/02 13:11:21;;;;;;;;;;;;;;;;;;5174761;27;2071;-37
2023/05/02 13:13:49;;;;;;;;;;;;;;;;;;5174656;27;1937;-40
2023/05/02 13:16:16;;;;;;;;;;;;;;;;;;5174811;27;2062;-38
2023/05/02 13:18:43;;;;;;;;;;;;;;;;;;5174641;27;1868;-37
2023/05/02 13:21:12;;;;;;;;;;;;;;;;;;5174661;27;2027;-37
2023/05/02 13:23:40;;;;;;;;;;;;;;;;;;5174698;27;2127;-37
2023/05/02 13:26:07;;;;;;;;;;;;;;;;;;5174765;27;1871;-37
2023/05/02 13:28:36;;;;;;;;;;;;;;;;;;5174051;27;2068;-37
2023/05/02 13:31:03;;;;;;;;;;;;;;;;;;5174680;27;1925;-37
2023/05/02 13:33:30;;;;;;;;;;;;;;;;;;5155708;27;2245;-44
2023/05/02 13:35:58;;;;;;;;;;;;;;;;;;5174281;27;1963;-54
2023/05/02 13:38:25;;;;;;;;;;;;;;;;;;5174255;27;1861;-42
2023/05/02 13:40:53;;;;;;;;;;;;;;;;;;5171125;27;2174;-40
2023/05/02 13:43:20;;;;;;;;;;;;;;;;;;5153177;27;1682;-39
2023/05/02 13:45:47;;;;;;;;;;;;;;;;;;5153146;27;1896;-37
2023/05/02 13:48:15;;;;;;;;;;;;;;;;;;5153344;27;2014;-37
2023/05/02 13:50:42;;;;;;;;;;;;;;;;;;5153082;27;1933;-37
2023/05/02 13:53:10;;;;;;;;;;;;;;;;;;5154747;27;2052;-36
2023/05/02 13:55:37;;;;;;;;;;;;;;;;;;5173758;27;2012;-41
2023/05/02 13:58:04;;;;;;;;;;;;;;;;;;5172741;27;2087;-44
2023/05/02 14:00:31;;;;;;;;;;;;;;;;;;5173516;27;1858;-44
2023/05/02 14:02:59;;;;;;;;;;;;;;;;;;5173334;27;1976;-42
2023/05/02 14:05:27;;;;;;;;;;;;;;;;;;5173233;27;2160;-38
2023/05/02 14:07:54;;;;;;;;;;;;;;;;;;5173201;27;1970;-38
2023/05/02 14:10:21;;;;;;;;;;;;;;;;;;5173645;27;2048;-40
2023/05/02 14:12:49;;;;;;;;;;;;;;;;;;5173912;27;2017;-41
2023/05/02 14:15:16;;;;;;;;;;;;;;;;;;5173770;27;2092;-37
2023/05/02 14:17:43;;;;;;;;;;;;;;;;;;5173776;27;2072;-37
2023/05/02 14:20:10;;;;;;;;;;;;;;;;;;5173914;27;1808;-42
2023/05/02 14:22:38;;;;;;;;;;;;;;;;;;5173681;27;2104;-38
2023/05/02 14:25:06;;;;;;;;;;;;;;;;;;5173712;27;2166;-38
2023/05/02 14:27:36;;;;;;;;;;;;;;;;;;5173625;27;1905;-38
2023/05/02 14:30:04;;;;;;;;;;;;;;;;;;5173410;27;2068;-37
2023/05/02 14:32:31;;;;;;;;;;;;;;;;;;5174023;27;1946;-39
2023/05/02 14:34:58;;;;;;;;;;;;;;;;;;5173651;27;1993;-37
2023/05/02 14:37:26;;;;;;;;;;;;;;;;;;5173859;27;2139;-38
2023/05/02 14:39:55;;;;;;;;;;;;;;;;;;5155592;27;1950;-38
2023/05/02 14:42:22;;;;;;;;;;;;;;;;;;5152805;27;1990;-37
2023/05/02 14:44:49;;;;;;;;;;;;;;;;;;5152885;27;2036;-38
2023/05/02 14:47:16;;;;;;;;;;;;;;;;;;5152481;27;1976;-37
2023/05/02 14:49:43;;;;;;;;;;;;;;;;;;5152913;27;2208;-37
2023/05/02 14:52:15;;;;;;;;;;;;;;;;;;5152528;27;2010;-38
2023/05/02 14:54:44;;;;;;;;;;;;;;;;;;5168307;27;2001;-38
2023/05/02 14:57:13;;;;;;;;;;;;;;;;;;5173381;27;1946;-46
2023/05/02 14:59:43;;;;;;;;;;;;;;;;;;5173399;27;1901;-38
2023/05/02 15:02:13;;;;;;;;;;;;;;;;;;5173255;27;2045;-38
2023/05/02 15:04:42;;;;;;;;;;;;;;;;;;5154513;27;2034;-37
2023/05/02 15:07:12;;;;;;;;;;;;;;;;;;5173312;27;2079;-38
2023/05/02 15:09:42;;;;;;;;;;;;;;;;;;5176330;27;1756;-40
2023/05/02 15:12:13;;;;;;;;;;;;;;;;;;5177114;27;2316;-37
2023/05/02 15:14:44;;;;;;;;;;;;;;;;;;5177340;27;1801;-37
2023/05/02 15:17:14;;;;;;;;;;;;;;;;;;5177321;27;2220;-46
2023/05/02 15:19:43;;;;;;;;;;;;;;;;;;5177268;27;2493;-37
2023/05/02 15:22:11;;;;;;;;;;;;;;;;;;5176980;27;1930;-38
2023/05/02 15:24:38;;;;;;;;;;;;;;;;;;5176956;27;1983;-40
2023/05/02 15:27:05;;;;;;;;;;;;;;;;;;5176871;27;1902;-37
2023/05/02 15:29:32;;;;;;;;;;;;;;;;;;5176779;27;1994;-37
2023/05/02 15:32:00;;;;;;;;;;;;;;;;;;5176749;27;2096;-37
2023/05/02 15:34:27;;;;;;;;;;;;;;;;;;5176345;27;1990;-37
2023/05/02 15:36:58;;;;;;;;;;;;;;;;;;5176689;27;1900;-40
2023/05/02 15:39:29;;;;;;;;;;;;;;;;;;5176452;27;2117;-40
2023/05/02 15:41:57;;;;;;;;;;;;;;;;;;5175932;27;2151;-38
2023/05/02 15:44:27;;;;;;;;;;;;;;;;;;5176715;27;2004;-36
2023/05/02 15:46:56;;;;;;;;;;;;;;;;;;5176940;27;1973;-40
2023/05/02 15:49:30;;;;;;;;;;;;;;;;;;5176228;27;2036;-37
2023/05/02 15:52:00;;;;;;;;;;;;;;;;;;5176123;27;1971;-37
2023/05/02 15:54:27;;;;;;;;;;;;;;;;;;5163030;27;1987;-43
2023/05/02 15:56:55;;;;;;;;;;;;;;;;;;5155312;27;1943;-38
2023/05/02 15:59:22;;;;;;;;;;;;;;;;;;5155596;27;1952;-37
2023/05/02 16:01:49;;;;;;;;;;;;;;;;;;5155479;27;1964;-39
2023/05/02 16:04:16;;;;;;;;;;;;;;;;;;5155202;27;1976;-52
2023/05/02 16:06:44;;;;;;;;;;;;;;;;;;5155251;27;2182;-44
2023/05/02 16:09:11;;;;;;;;;;;;;;;;;;5155174;27;2033;-40
2023/05/02 16:11:39;;;;;;;;;;;;;;;;;;5155197;27;2045;-39
2023/05/02 16:14:06;;;;;;;;;;;;;;;;;;5155040;27;2027;-38
2023/05/02 16:16:33;;;;;;;;;;;;;;;;;;5154998;27;2009;-38
2023/05/02 16:19:00;;;;;;;;;;;;;;;;;;5155067;27;2051;-37
2023/05/02 16:21:27;;;;;;;;;;;;;;;;;;5154253;27;1846;-43
2023/05/02 16:23:54;;;;;;;;;;;;;;;;;;5154891;27;1923;-38
2023/05/02 16:26:22;;;;;;;;;;;;;;;;;;5155151;27;1777;-38
2023/05/02 16:28:49;;;;;;;;;;;;;;;;;;5154821;27;2017;-47
2023/05/02 16:31:16;;;;;;;;;;;;;;;;;;5154739;27;1730;-38
2023/05/02 16:33:43;;;;;;;;;;;;;;;;;;5154631;27;1974;-49
2023/05/02 16:36:10;;;;;;;;;;;;;;;;;;5154952;27;1951;-44
2023/05/02 16:38:37;;;;;;;;;;;;;;;;;;5154389;27;1986;-41
2023/05/02 16:41:05;;;;;;;;;;;;;;;;;;5154623;27;2074;-38
2023/05/02 16:43:33;;;;;;;;;;;;;;;;;;5154480;27;1966;-38
2023/05/02 16:46:02;;;;;;;;;;;;;;;;;;5154338;27;2173;-47
2023/05/02 16:48:31;;;;;;;;;;;;;;;;;;5154432;27;1901;-43
2023/05/02 16:50:59;;;;;;;;;;;;;;;;;;5154456;27;2003;-40
2023/05/02 16:53:29;;;;;;;;;;;;;;;;;;5159086;27;1927;-38
2023/05/02 16:55:58;;;;;;;;;;;;;;;;;;5175293;27;1995;-42
2023/05/02 16:58:28;;;;;;;;;;;;;;;;;;5175289;27;1943;-37
2023/05/02 17:00:57;;;;;;;;;;;;;;;;;;5174944;27;2080;-38
2023/05/02 17:03:24;;;;;;;;;;;;;;;;;;5175328;27;1980;-47
2023/05/02 17:05:52;;;;;;;;;;;;;;;;;;5175187;27;1955;-42
2023/05/02 17:08:19;;;;;;;;;;;;;;;;;;5174753;27;1923;-42
2023/05/02 17:10:48;;;;;;;;;;;;;;;;;;5174578;27;1924;-40
2023/05/02 17:13:15;;;;;;;;;;;;;;;;;;5155614;27;1978;-38
2023/05/02 17:15:42;;;;;;;;;;;;;;;;;;5153982;27;1986;-37
2023/05/02 17:18:10;;;;;;;;;;;;;;;;;;5153999;27;2170;-38